createdAt,value
2022-10-29T00:00:29.959Z,7.90
2022-10-29T00:01:09.813Z,8.68
2022-10-29T00:01:44.824Z,8.00
2022-10-29T00:02:31.007Z,8.75
2022-10-29T00:03:08.182Z,8.20
2022-10-29T00:03:42.965Z,8.55
2022-10-29T00:04:18.576Z,8.30
2022-10-29T00:04:52.914Z,8.60
2022-10-29T00:05:27.902Z,8.25
2022-10-29T00:06:06.169Z,8.50
2022-10-29T00:06:40.477Z,8.65
2022-10-29T00:07:15.994Z,8.85
2022-10-29T00:07:51.773Z,8.70
2022-10-29T00:08:27.488Z,9.18
2022-10-29T00:09:01.443Z,8.40
2022-10-29T00:09:36.529Z,9.02
2022-10-29T00:10:12.134Z,8.27
2022-10-29T00:10:46.608Z,9.05
2022-10-29T00:11:23.373Z,8.68
2022-10-29T00:11:58.696Z,8.73
2022-10-29T00:12:33.818Z,9.15
2022-10-29T00:13:08.609Z,9.18
2022-10-29T00:13:46.422Z,8.40
2022-10-29T00:14:20.755Z,8.68
2022-10-29T00:14:55.522Z,8.60
2022-10-29T00:15:31.064Z,8.68
2022-10-29T00:16:10.529Z,9.43
2022-10-29T00:16:44.879Z,8.90
2022-10-29T00:17:20.014Z,8.45
2022-10-29T00:17:56.637Z,8.57
2022-10-29T00:18:32.358Z,9.10
2022-10-29T00:19:07.028Z,9.10
2022-10-29T00:19:43.798Z,8.63
2022-10-29T00:20:21.588Z,8.10
2022-10-29T00:21:02.085Z,9.15
2022-10-29T00:21:41.225Z,8.68
2022-10-29T00:22:16.396Z,7.95
2022-10-29T00:22:54.017Z,8.70
2022-10-29T00:23:29.189Z,7.75
2022-10-29T00:24:04.166Z,9.07
2022-10-29T00:24:38.602Z,8.50
2022-10-29T00:25:12.971Z,8.20
2022-10-29T00:25:49.017Z,8.40
2022-10-29T00:26:26.292Z,8.48
2022-10-29T00:27:01.996Z,7.68
2022-10-29T00:27:38.511Z,9.07
2022-10-29T00:28:13.661Z,8.43
2022-10-29T00:28:48.633Z,8.38
2022-10-29T00:29:24.974Z,8.80
2022-10-29T00:30:01.053Z,8.27
2022-10-29T00:30:37.116Z,8.65
2022-10-29T00:31:14.799Z,8.30
2022-10-29T00:31:51.125Z,8.88
2022-10-29T00:32:26.186Z,8.45
2022-10-29T00:33:02.881Z,7.95
2022-10-29T00:33:36.737Z,8.45
2022-10-29T00:34:11.896Z,8.30
2022-10-29T00:34:47.839Z,8.43
2022-10-29T00:35:22.086Z,8.55
2022-10-29T00:35:57.488Z,8.82
2022-10-29T00:36:32.790Z,8.88
2022-10-29T00:37:06.750Z,8.80
2022-10-29T00:37:41.936Z,8.75
2022-10-29T00:38:18.281Z,8.32
2022-10-29T00:38:53.341Z,8.55
2022-10-29T00:39:30.493Z,8.07
2022-10-29T00:40:06.244Z,8.27
2022-10-29T00:40:40.946Z,9.18
2022-10-29T00:41:20.521Z,8.35
2022-10-29T00:41:56.031Z,8.52
2022-10-29T00:42:30.719Z,8.10
2022-10-29T00:43:15.962Z,8.70
2022-10-29T00:43:51.928Z,8.18
2022-10-29T00:44:36.353Z,8.10
2022-10-29T00:45:20.154Z,8.43
2022-10-29T00:45:57.376Z,8.30
2022-10-29T00:46:34.980Z,8.10
2022-10-29T00:47:19.221Z,8.57
2022-10-29T00:47:56.725Z,7.95
2022-10-29T00:48:34.343Z,8.25
2022-10-29T00:49:10.747Z,7.95
2022-10-29T00:49:48.468Z,8.88
2022-10-29T00:50:26.103Z,8.18
2022-10-29T00:51:04.059Z,8.45
2022-10-29T00:51:40.313Z,8.80
2022-10-29T00:52:16.219Z,8.07
2022-10-29T00:52:52.113Z,8.07
2022-10-29T00:53:29.960Z,7.85
2022-10-29T00:54:10.711Z,8.20
2022-10-29T00:54:48.847Z,7.65
2022-10-29T00:55:23.309Z,8.18
2022-10-29T00:55:58.457Z,7.68
2022-10-29T00:56:37.557Z,7.85
2022-10-29T00:57:17.579Z,7.22
2022-10-29T00:57:56.041Z,7.13
2022-10-29T00:58:32.003Z,6.97
2022-10-29T00:59:07.516Z,7.65
2022-10-29T00:59:43.164Z,8.27
2022-10-29T01:00:21.211Z,7.63
2022-10-29T01:00:58.270Z,6.82
2022-10-29T01:01:35.808Z,8.63
2022-10-29T01:02:27.846Z,7.50
2022-10-29T01:03:06.015Z,7.28
2022-10-29T01:03:40.585Z,7.68
2022-10-29T01:04:16.383Z,7.45
2022-10-29T01:04:51.878Z,7.32
2022-10-29T01:05:27.780Z,7.38
2022-10-29T01:06:06.192Z,7.22
2022-10-29T01:06:41.439Z,7.00
2022-10-29T01:07:15.822Z,7.57
2022-10-29T01:07:50.818Z,7.25
2022-10-29T01:08:25.168Z,7.43
2022-10-29T01:08:59.498Z,8.25
2022-10-29T01:09:33.874Z,7.28
2022-10-29T01:10:09.618Z,7.72
2022-10-29T01:10:56.258Z,7.28
2022-10-29T01:11:42.194Z,7.32
2022-10-29T01:12:35.666Z,6.47
2022-10-29T01:13:43.509Z,6.53
2022-10-29T01:14:30.431Z,6.85
2022-10-29T01:15:11.809Z,6.43
2022-10-29T01:15:55.638Z,7.25
2022-10-29T01:16:36.596Z,7.03
2022-10-29T01:17:22.653Z,6.88
2022-10-29T01:18:08.743Z,6.75
2022-10-29T01:18:49.013Z,6.20
2022-10-29T01:19:40.251Z,6.40
2022-10-29T01:21:43.428Z,6.15
2022-10-29T01:22:22.545Z,6.55
2022-10-29T01:23:06.755Z,6.93
2022-10-29T01:24:13.311Z,6.57
2022-10-29T01:25:34.228Z,6.97
2022-10-29T01:26:41.030Z,6.65
2022-10-29T01:27:56.982Z,6.32
2022-10-29T01:28:46.839Z,6.15
2022-10-29T01:29:36.514Z,6.05
2022-10-29T01:30:20.090Z,6.60
2022-10-29T01:31:23.737Z,6.38
2022-10-29T01:32:06.128Z,5.93
2022-10-29T01:33:06.413Z,5.70
2022-10-29T01:33:47.773Z,6.47
2022-10-29T01:34:28.615Z,6.13
2022-10-29T01:35:08.671Z,6.60
2022-10-29T01:35:50.728Z,5.78
2022-10-29T01:36:32.244Z,6.43
2022-10-29T01:37:15.589Z,6.28
2022-10-29T01:38:00.491Z,6.13
2022-10-29T01:38:40.076Z,6.50
2022-10-29T01:39:21.559Z,6.00
2022-10-29T01:40:02.074Z,6.00
2022-10-29T01:41:17.760Z,5.35
2022-10-29T01:41:59.696Z,6.35
2022-10-29T01:42:39.112Z,5.88
2022-10-29T01:43:59.829Z,6.15
2022-10-29T01:44:39.520Z,5.85
2022-10-29T01:45:20.012Z,6.05
2022-10-29T01:45:59.128Z,5.70
2022-10-29T01:46:40.950Z,5.55
2022-10-29T01:47:18.817Z,5.68
2022-10-29T01:47:58.986Z,5.93
2022-10-29T01:49:16.888Z,5.82
2022-10-29T01:49:57.180Z,5.53
2022-10-29T01:50:33.707Z,6.10
2022-10-29T01:51:14.928Z,5.40
2022-10-29T01:51:55.231Z,5.90
2022-10-29T01:52:34.427Z,5.35
2022-10-29T01:53:09.570Z,5.80
2022-10-29T01:53:45.465Z,5.93
2022-10-29T01:54:20.365Z,5.80
2022-10-29T01:54:54.783Z,6.03
2022-10-29T01:55:35.814Z,6.13
2022-10-29T01:56:10.079Z,5.47
2022-10-29T01:56:44.529Z,6.15
2022-10-29T01:57:32.404Z,5.60
2022-10-29T01:58:07.247Z,5.60
2022-10-29T01:58:47.817Z,5.47
2022-10-29T01:59:36.043Z,5.63
2022-10-29T02:00:32.017Z,5.30
2022-10-29T02:01:23.384Z,5.63
2022-10-29T02:02:08.998Z,5.70
2022-10-29T02:03:00.229Z,5.88
2022-10-29T02:03:44.267Z,5.38
2022-10-29T02:04:53.635Z,5.65
2022-10-29T02:05:33.950Z,5.68
2022-10-29T02:06:16.746Z,5.63
2022-10-29T02:07:01.672Z,5.65
2022-10-29T02:07:46.032Z,5.43
2022-10-29T02:08:32.112Z,5.28
2022-10-29T02:09:14.052Z,5.70
2022-10-29T02:09:56.953Z,5.85
2022-10-29T02:10:41.336Z,5.68
2022-10-29T02:11:22.910Z,5.88
2022-10-29T02:12:02.762Z,6.13
2022-10-29T02:12:43.999Z,5.15
2022-10-29T02:13:20.490Z,5.55
2022-10-29T02:13:59.938Z,5.45
2022-10-29T02:14:38.558Z,5.57
2022-10-29T02:15:18.551Z,6.05
2022-10-29T02:15:56.203Z,5.68
2022-10-29T02:16:31.656Z,5.45
2022-10-29T02:17:07.895Z,5.30
2022-10-29T02:17:44.993Z,5.72
2022-10-29T02:18:20.044Z,6.00
2022-10-29T02:18:55.189Z,5.82
2022-10-29T02:19:32.921Z,5.80
2022-10-29T02:20:09.954Z,5.40
2022-10-29T02:20:46.237Z,5.93
2022-10-29T02:21:22.927Z,6.32
2022-10-29T02:21:57.263Z,6.55
2022-10-29T02:22:32.277Z,6.72
2022-10-29T02:23:08.521Z,6.70
2022-10-29T02:23:42.828Z,6.32
2022-10-29T02:24:17.371Z,6.50
2022-10-29T02:24:53.774Z,7.10
2022-10-29T02:25:28.586Z,6.32
2022-10-29T02:26:07.258Z,6.45
2022-10-29T02:26:43.798Z,6.50
2022-10-29T02:27:17.543Z,6.75
2022-10-29T02:27:51.354Z,6.72
2022-10-29T02:28:27.421Z,6.45
2022-10-29T02:29:02.969Z,6.00
2022-10-29T02:29:37.831Z,5.97
2022-10-29T02:30:15.084Z,6.13
2022-10-29T02:30:49.468Z,6.35
2022-10-29T02:31:24.252Z,6.22
2022-10-29T02:31:59.217Z,5.85
2022-10-29T02:32:35.372Z,6.20
2022-10-29T02:33:08.768Z,5.97
2022-10-29T02:33:48.126Z,5.80
2022-10-29T02:34:24.458Z,5.78
2022-10-29T02:34:59.614Z,5.60
2022-10-29T02:35:34.404Z,5.80
2022-10-29T02:36:11.994Z,5.93
2022-10-29T02:36:47.474Z,6.05
2022-10-29T02:37:22.841Z,5.63
2022-10-29T02:37:57.579Z,6.15
2022-10-29T02:38:33.562Z,5.97
2022-10-29T02:39:07.894Z,5.38
2022-10-29T02:39:44.359Z,5.95
2022-10-29T02:40:19.314Z,5.75
2022-10-29T02:40:53.860Z,5.82
2022-10-29T02:41:30.615Z,6.45
2022-10-29T02:42:06.658Z,5.97
2022-10-29T02:42:42.859Z,5.95
2022-10-29T02:43:17.259Z,6.00
2022-10-29T02:43:52.088Z,5.60
2022-10-29T02:44:27.479Z,5.53
2022-10-29T02:45:02.493Z,5.43
2022-10-29T02:45:37.345Z,5.63
2022-10-29T02:46:18.020Z,5.50
2022-10-29T02:46:51.949Z,187.32
2022-10-29T02:47:28.159Z,416.58
2022-10-29T02:48:06.136Z,203.07
2022-10-29T02:48:40.860Z,249.07
2022-10-29T02:49:14.966Z,192.70
2022-10-29T02:49:51.395Z,14.80
2022-10-29T02:50:26.433Z,7.05
2022-10-29T02:51:01.775Z,6.85
2022-10-29T02:51:37.913Z,6.40
2022-10-29T02:52:12.358Z,6.03
2022-10-29T02:52:47.145Z,5.97
2022-10-29T02:53:23.972Z,5.95
2022-10-29T02:53:58.827Z,6.22
2022-10-29T02:54:33.673Z,6.57
2022-10-29T02:55:11.967Z,5.93
2022-10-29T02:55:46.230Z,5.65
2022-10-29T02:56:20.459Z,5.95
2022-10-29T02:56:55.711Z,5.78
2022-10-29T02:57:30.031Z,5.85
2022-10-29T02:58:05.401Z,6.13
2022-10-29T02:58:39.981Z,5.95
2022-10-29T02:59:14.359Z,6.10
2022-10-29T02:59:49.447Z,6.68
2022-10-29T03:00:25.997Z,6.47
2022-10-29T03:01:06.151Z,6.32
2022-10-29T03:01:41.040Z,6.28
2022-10-29T03:02:20.918Z,5.80
2022-10-29T03:03:01.614Z,6.88
2022-10-29T03:03:38.359Z,5.95
2022-10-29T03:04:14.091Z,6.20
2022-10-29T03:04:48.447Z,6.50
2022-10-29T03:05:21.687Z,7.43
2022-10-29T03:05:57.884Z,7.30
2022-10-29T03:06:32.284Z,6.40
2022-10-29T03:07:07.751Z,6.68
2022-10-29T03:07:43.463Z,6.32
2022-10-29T03:08:17.476Z,6.18
2022-10-29T03:08:53.008Z,6.57
2022-10-29T03:09:28.819Z,6.00
2022-10-29T03:10:04.166Z,6.13
2022-10-29T03:10:42.588Z,5.75
2022-10-29T03:11:19.203Z,6.65
2022-10-29T03:11:54.791Z,6.55
2022-10-29T03:12:29.092Z,6.05
2022-10-29T03:13:05.159Z,6.38
2022-10-29T03:13:39.790Z,6.15
2022-10-29T03:14:14.786Z,6.25
2022-10-29T03:14:50.843Z,6.38
2022-10-29T03:15:26.242Z,5.47
2022-10-29T03:16:01.086Z,6.10
2022-10-29T03:16:36.874Z,5.60
2022-10-29T03:17:10.701Z,6.60
2022-10-29T03:17:46.116Z,6.63
2022-10-29T03:18:21.586Z,8.13
2022-10-29T03:18:57.486Z,8.82
2022-10-29T03:19:32.371Z,6.95
2022-10-29T03:20:11.732Z,6.72
2022-10-29T03:20:46.242Z,6.15
2022-10-29T03:21:22.023Z,6.38
2022-10-29T03:21:56.768Z,6.60
2022-10-29T03:22:31.747Z,392.80
2022-10-29T03:23:06.869Z,182.82
2022-10-29T03:23:42.111Z,376.73
2022-10-29T03:24:17.360Z,119.07
2022-10-29T03:24:53.507Z,13.65
2022-10-29T03:25:29.918Z,8.85
2022-10-29T03:26:04.837Z,8.05
2022-10-29T03:26:38.821Z,6.57
2022-10-29T03:27:15.172Z,6.40
2022-10-29T03:27:50.152Z,6.10
2022-10-29T03:28:26.296Z,7.10
2022-10-29T03:29:02.175Z,6.10
2022-10-29T03:29:36.648Z,5.70
2022-10-29T03:30:14.162Z,6.68
2022-10-29T03:30:48.132Z,6.20
2022-10-29T03:31:24.340Z,5.70
2022-10-29T03:31:57.638Z,6.50
2022-10-29T03:32:32.990Z,6.97
2022-10-29T03:33:09.648Z,7.00
2022-10-29T03:33:45.225Z,6.65
2022-10-29T03:34:22.179Z,6.63
2022-10-29T03:34:59.829Z,6.93
2022-10-29T03:35:35.048Z,8.13
2022-10-29T03:36:12.571Z,7.72
2022-10-29T03:36:46.423Z,6.80
2022-10-29T03:37:21.803Z,7.20
2022-10-29T03:37:57.785Z,6.75
2022-10-29T03:38:33.324Z,6.90
2022-10-29T03:39:10.045Z,6.85
2022-10-29T03:39:44.955Z,7.07
2022-10-29T03:40:20.013Z,6.07
2022-10-29T03:40:55.817Z,6.10
2022-10-29T03:41:30.213Z,6.68
2022-10-29T03:42:04.797Z,6.50
2022-10-29T03:42:40.334Z,6.30
2022-10-29T03:43:15.259Z,6.55
2022-10-29T03:43:50.448Z,6.22
2022-10-29T03:44:26.502Z,6.30
2022-10-29T03:45:00.550Z,6.28
2022-10-29T03:45:35.015Z,6.93
2022-10-29T03:46:09.979Z,5.95
2022-10-29T03:46:43.775Z,5.80
2022-10-29T03:47:18.867Z,5.95
2022-10-29T03:47:54.656Z,6.03
2022-10-29T03:48:29.048Z,6.43
2022-10-29T03:49:04.952Z,5.80
2022-10-29T03:49:42.870Z,6.13
2022-10-29T03:50:18.430Z,5.78
2022-10-29T03:50:57.301Z,5.95
2022-10-29T03:51:33.748Z,6.60
2022-10-29T03:52:09.292Z,6.28
2022-10-29T03:52:43.622Z,6.47
2022-10-29T03:53:20.860Z,6.78
2022-10-29T03:53:55.805Z,6.45
2022-10-29T03:54:30.620Z,6.65
2022-10-29T03:55:06.770Z,287.63
2022-10-29T03:55:42.169Z,310.58
2022-10-29T03:56:16.565Z,294.63
2022-10-29T03:56:53.029Z,58.65
2022-10-29T03:57:26.737Z,10.15
2022-10-29T03:58:01.398Z,8.43
2022-10-29T03:58:37.378Z,7.05
2022-10-29T03:59:12.308Z,6.07
2022-10-29T03:59:50.033Z,6.60
2022-10-29T04:00:32.989Z,6.38
2022-10-29T04:01:32.644Z,6.22
2022-10-29T04:02:17.211Z,5.45
2022-10-29T04:02:51.604Z,6.13
2022-10-29T04:03:25.917Z,5.35
2022-10-29T04:04:01.887Z,5.85
2022-10-29T04:04:36.254Z,5.68
2022-10-29T04:05:11.962Z,6.38
2022-10-29T04:05:49.069Z,6.25
2022-10-29T04:06:23.998Z,6.10
2022-10-29T04:06:59.873Z,5.97
2022-10-29T04:07:34.212Z,485.50
2022-10-29T04:08:09.725Z,486.10
2022-10-29T04:08:46.819Z,426.33
2022-10-29T04:09:20.414Z,213.77
2022-10-29T04:09:55.511Z,766.38
2022-10-29T04:10:31.804Z,843.53
2022-10-29T04:11:06.156Z,422.45
2022-10-29T04:11:41.591Z,582.80
2022-10-29T04:12:15.999Z,31.35
2022-10-29T04:12:52.020Z,13.10
2022-10-29T04:13:26.476Z,9.20
2022-10-29T04:14:00.864Z,7.40
2022-10-29T04:14:37.232Z,6.43
2022-10-29T04:15:13.673Z,6.57
2022-10-29T04:15:48.183Z,6.10
2022-10-29T04:16:24.029Z,6.45
2022-10-29T04:16:58.967Z,6.18
2022-10-29T04:17:34.818Z,5.75
2022-10-29T04:18:10.342Z,6.45
2022-10-29T04:18:48.380Z,47.65
2022-10-29T04:19:22.735Z,206.68
2022-10-29T04:19:58.190Z,123.47
2022-10-29T04:20:45.602Z,176.02
2022-10-29T04:23:25.364Z,12.65
2022-10-29T04:28:52.866Z,4.93
2022-10-29T04:29:28.088Z,5.13
2022-10-29T04:30:04.641Z,5.50
2022-10-29T04:30:39.372Z,4.95
2022-10-29T04:31:13.890Z,4.70
2022-10-29T04:31:50.950Z,4.97
2022-10-29T04:32:25.931Z,4.97
2022-10-29T04:33:01.421Z,4.43
2022-10-29T04:33:37.314Z,5.03
2022-10-29T04:34:12.389Z,4.40
2022-10-29T04:34:47.250Z,4.95
2022-10-29T04:35:23.598Z,4.47
2022-10-29T04:35:59.784Z,4.40
2022-10-29T04:36:34.742Z,4.72
2022-10-29T04:37:09.285Z,94.57
2022-10-29T04:37:44.147Z,544.30
2022-10-29T04:38:19.263Z,21.80
2022-10-29T04:38:55.227Z,25.45
2022-10-29T04:39:30.438Z,8.52
2022-10-29T04:40:06.711Z,6.45
2022-10-29T04:41:19.640Z,511.10
2022-10-29T04:41:54.463Z,83.07
2022-10-29T04:42:30.833Z,17.50
2022-10-29T04:43:04.715Z,9.93
2022-10-29T04:43:39.122Z,7.05
2022-10-29T04:44:15.436Z,5.75
2022-10-29T04:44:50.140Z,6.07
2022-10-29T04:45:24.583Z,5.25
2022-10-29T04:46:01.638Z,5.30
2022-10-29T04:46:36.277Z,5.03
2022-10-29T04:47:11.579Z,4.50
2022-10-29T04:47:46.758Z,4.90
2022-10-29T04:48:21.082Z,4.57
2022-10-29T04:48:55.532Z,4.57
2022-10-29T04:49:36.086Z,4.85
2022-10-29T04:50:11.425Z,4.82
2022-10-29T04:50:45.338Z,4.57
2022-10-29T04:51:26.825Z,4.82
2022-10-29T04:52:00.610Z,4.60
2022-10-29T04:52:35.428Z,4.57
2022-10-29T04:53:12.087Z,4.45
2022-10-29T04:53:46.902Z,4.25
2022-10-29T04:54:22.343Z,4.35
2022-10-29T04:54:57.850Z,4.80
2022-10-29T04:55:32.493Z,4.55
2022-10-29T04:56:09.095Z,4.75
2022-10-29T04:56:44.654Z,5.20
2022-10-29T04:57:18.794Z,4.50
2022-10-29T04:57:53.492Z,4.05
2022-10-29T04:58:30.480Z,9.20
2022-10-29T04:59:05.092Z,7.78
2022-10-29T04:59:39.902Z,6.70
2022-10-29T05:00:23.861Z,5.70
2022-10-29T05:01:03.100Z,4.82
2022-10-29T05:01:43.581Z,4.45
2022-10-29T05:02:22.603Z,4.18
2022-10-29T05:03:00.845Z,4.18
2022-10-29T05:03:37.447Z,5.05
2022-10-29T05:04:12.286Z,4.63
2022-10-29T05:04:47.135Z,4.60
2022-10-29T05:05:23.202Z,5.18
2022-10-29T05:05:57.629Z,4.35
2022-10-29T05:06:34.099Z,4.35
2022-10-29T05:07:10.973Z,5.40
2022-10-29T05:07:45.480Z,5.00
2022-10-29T05:08:20.894Z,4.63
2022-10-29T05:08:56.272Z,4.45
2022-10-29T05:09:31.270Z,4.65
2022-10-29T05:10:07.557Z,4.75
2022-10-29T05:10:44.851Z,4.63
2022-10-29T05:11:19.683Z,9.48
2022-10-29T05:11:54.639Z,154.40
2022-10-29T05:12:30.985Z,748.70
2022-10-29T05:13:07.354Z,291.92
2022-10-29T05:13:41.147Z,585.92
2022-10-29T05:14:16.561Z,35.42
2022-10-29T05:14:52.034Z,43.47
2022-10-29T05:15:26.776Z,12.60
2022-10-29T05:16:02.283Z,12.20
2022-10-29T05:16:37.297Z,8.00
2022-10-29T05:17:12.087Z,6.63
2022-10-29T05:17:49.224Z,6.35
2022-10-29T05:18:24.661Z,8.05
2022-10-29T05:18:59.834Z,6.40
2022-10-29T05:19:35.315Z,6.00
2022-10-29T05:20:10.105Z,5.88
2022-10-29T05:20:45.060Z,4.97
2022-10-29T05:21:20.940Z,5.05
2022-10-29T05:21:57.579Z,5.43
2022-10-29T05:22:32.591Z,4.97
2022-10-29T05:23:13.141Z,6.65
2022-10-29T05:23:48.896Z,5.00
2022-10-29T05:24:25.207Z,4.32
2022-10-29T05:24:59.899Z,4.70
2022-10-29T05:25:36.073Z,5.03
2022-10-29T05:26:11.502Z,4.93
2022-10-29T05:26:45.811Z,5.18
2022-10-29T05:27:20.104Z,4.57
2022-10-29T05:28:02.425Z,4.45
2022-10-29T05:28:38.652Z,4.85
2022-10-29T05:29:14.100Z,4.95
2022-10-29T05:29:48.402Z,4.55
2022-10-29T05:30:24.795Z,4.47
2022-10-29T05:31:02.312Z,4.32
2022-10-29T05:31:37.241Z,4.35
2022-10-29T05:32:12.333Z,4.57
2022-10-29T05:32:46.889Z,5.18
2022-10-29T05:33:22.839Z,4.50
2022-10-29T05:34:00.479Z,5.25
2022-10-29T05:34:35.051Z,8.38
2022-10-29T05:35:11.671Z,23.95
2022-10-29T05:35:46.022Z,25.25
2022-10-29T05:36:21.271Z,14.10
2022-10-29T05:36:57.811Z,6.30
2022-10-29T05:37:32.338Z,6.53
2022-10-29T05:38:07.514Z,5.80
2022-10-29T05:38:43.558Z,6.00
2022-10-29T05:39:18.147Z,6.53
2022-10-29T05:39:53.368Z,5.38
2022-10-29T05:40:29.765Z,5.50
2022-10-29T05:41:04.372Z,6.35
2022-10-29T05:41:38.534Z,5.35
2022-10-29T05:42:14.993Z,5.07
2022-10-29T05:42:49.737Z,5.30
2022-10-29T05:43:31.043Z,5.63
2022-10-29T05:44:06.537Z,5.53
2022-10-29T05:44:40.604Z,5.28
2022-10-29T05:45:16.647Z,5.60
2022-10-29T05:45:51.287Z,5.13
2022-10-29T05:46:28.199Z,5.45
2022-10-29T05:47:02.830Z,5.18
2022-10-29T05:47:36.868Z,5.15
2022-10-29T05:48:13.512Z,107.43
2022-10-29T05:48:47.710Z,82.65
2022-10-29T05:49:22.860Z,10.43
2022-10-29T05:49:59.231Z,7.30
2022-10-29T05:50:34.511Z,6.03
2022-10-29T05:51:10.269Z,5.68
2022-10-29T05:51:48.517Z,4.78
2022-10-29T05:52:24.161Z,5.22
2022-10-29T05:53:00.568Z,5.95
2022-10-29T05:53:34.730Z,5.22
2022-10-29T05:54:11.024Z,5.50
2022-10-29T05:54:46.177Z,5.07
2022-10-29T05:55:20.964Z,5.20
2022-10-29T05:55:56.211Z,5.68
2022-10-29T05:56:31.581Z,5.75
2022-10-29T05:57:06.662Z,5.40
2022-10-29T05:57:42.652Z,5.22
2022-10-29T05:58:17.311Z,5.45
2022-10-29T05:58:52.767Z,5.32
2022-10-29T05:59:32.625Z,5.90
2022-10-29T06:00:13.580Z,5.53
2022-10-29T06:00:55.278Z,5.65
2022-10-29T06:01:30.362Z,6.13
2022-10-29T06:02:05.241Z,5.47
2022-10-29T06:02:41.501Z,5.38
2022-10-29T06:03:17.402Z,5.93
2022-10-29T06:04:28.473Z,5.80
2022-10-29T06:05:03.285Z,5.32
2022-10-29T06:05:38.972Z,5.57
2022-10-29T06:06:13.790Z,6.00
2022-10-29T06:06:50.576Z,6.13
2022-10-29T06:07:26.653Z,5.00
2022-10-29T06:08:02.018Z,49.55
2022-10-29T06:08:37.010Z,18.85
2022-10-29T06:09:12.244Z,19.95
2022-10-29T06:09:47.457Z,7.35
2022-10-29T06:10:24.229Z,6.32
2022-10-29T06:11:02.722Z,5.70
2022-10-29T06:11:38.103Z,5.28
2022-10-29T06:12:14.069Z,5.63
2022-10-29T06:12:48.728Z,6.32
2022-10-29T06:13:23.897Z,5.80
2022-10-29T06:13:58.442Z,6.10
2022-10-29T06:14:32.858Z,5.22
2022-10-29T06:15:09.718Z,5.57
2022-10-29T06:15:46.432Z,5.28
2022-10-29T06:16:20.539Z,5.72
2022-10-29T06:16:55.727Z,5.38
2022-10-29T06:17:31.712Z,5.15
2022-10-29T06:18:06.965Z,5.47
2022-10-29T06:18:41.563Z,4.57
2022-10-29T06:19:19.891Z,10.05
2022-10-29T06:19:54.619Z,161.23
2022-10-29T06:20:30.685Z,22.48
2022-10-29T06:21:06.062Z,100.38
2022-10-29T06:21:40.865Z,173.77
2022-10-29T06:22:16.387Z,54.67
2022-10-29T06:22:58.719Z,11.38
2022-10-29T06:23:35.049Z,6.18
2022-10-29T06:24:09.613Z,5.10
2022-10-29T06:24:44.866Z,6.25
2022-10-29T06:25:20.846Z,7.15
2022-10-29T06:25:55.504Z,10.05
2022-10-29T06:26:31.602Z,11.45
2022-10-29T06:27:06.410Z,17.98
2022-10-29T06:27:41.116Z,6.40
2022-10-29T06:28:17.765Z,5.82
2022-10-29T06:29:31.695Z,5.50
2022-10-29T06:30:07.065Z,5.25
2022-10-29T06:30:42.730Z,5.60
2022-10-29T06:31:18.647Z,4.78
2022-10-29T06:31:53.946Z,5.05
2022-10-29T06:32:29.323Z,5.03
2022-10-29T06:33:08.517Z,4.85
2022-10-29T06:33:43.092Z,4.93
2022-10-29T06:34:18.245Z,5.15
2022-10-29T06:34:54.501Z,5.13
2022-10-29T06:35:29.839Z,5.20
2022-10-29T06:36:04.575Z,5.00
2022-10-29T06:36:41.358Z,5.35
2022-10-29T06:37:16.332Z,5.30
2022-10-29T06:37:51.810Z,5.55
2022-10-29T06:38:28.840Z,4.60
2022-10-29T06:39:04.057Z,4.80
2022-10-29T06:39:38.790Z,6.13
2022-10-29T06:40:16.057Z,5.68
2022-10-29T06:40:53.828Z,4.88
2022-10-29T06:41:30.041Z,4.25
2022-10-29T06:42:05.014Z,5.18
2022-10-29T06:42:39.936Z,4.85
2022-10-29T06:43:16.757Z,8.52
2022-10-29T06:43:52.002Z,5.82
2022-10-29T06:44:26.598Z,6.63
2022-10-29T06:45:00.687Z,6.22
2022-10-29T06:45:36.617Z,6.60
2022-10-29T06:46:11.302Z,6.65
2022-10-29T06:46:46.634Z,7.10
2022-10-29T06:47:23.336Z,5.03
2022-10-29T06:47:58.410Z,5.03
2022-10-29T06:48:33.514Z,5.32
2022-10-29T06:49:10.410Z,4.55
2022-10-29T06:49:46.326Z,183.05
2022-10-29T06:50:19.917Z,25.70
2022-10-29T06:50:56.394Z,6.00
2022-10-29T06:51:31.700Z,5.93
2022-10-29T06:52:07.713Z,4.93
2022-10-29T06:52:41.763Z,40.47
2022-10-29T06:53:16.042Z,6.32
2022-10-29T06:53:54.752Z,5.93
2022-10-29T06:54:28.829Z,8.18
2022-10-29T06:55:03.080Z,6.47
2022-10-29T06:55:38.695Z,7.07
2022-10-29T06:56:13.764Z,5.60
2022-10-29T06:56:48.933Z,4.97
2022-10-29T06:57:25.792Z,4.60
2022-10-29T06:58:01.656Z,4.40
2022-10-29T06:58:36.909Z,4.95
2022-10-29T06:59:11.290Z,4.60
2022-10-29T06:59:46.554Z,4.82
2022-10-29T07:00:24.798Z,4.13
2022-10-29T07:01:01.638Z,4.57
2022-10-29T07:01:48.056Z,4.65
2022-10-29T07:02:23.807Z,4.72
2022-10-29T07:03:02.422Z,5.40
2022-10-29T07:03:43.786Z,5.13
2022-10-29T07:04:19.184Z,5.40
2022-10-29T07:04:53.732Z,5.00
2022-10-29T07:05:30.840Z,4.97
2022-10-29T07:06:05.297Z,4.47
2022-10-29T07:06:41.421Z,4.57
2022-10-29T07:07:15.871Z,4.82
2022-10-29T07:07:50.809Z,4.65
2022-10-29T07:08:26.637Z,4.68
2022-10-29T07:09:02.685Z,4.60
2022-10-29T07:09:37.937Z,4.20
2022-10-29T07:10:14.149Z,4.90
2022-10-29T07:10:51.909Z,5.22
2022-10-29T07:11:28.231Z,4.90
2022-10-29T07:12:03.375Z,4.45
2022-10-29T07:12:40.919Z,4.60
2022-10-29T07:13:16.929Z,4.90
2022-10-29T07:13:51.538Z,4.90
2022-10-29T07:14:26.710Z,5.72
2022-10-29T07:15:02.177Z,5.03
2022-10-29T07:15:36.506Z,4.72
2022-10-29T07:16:12.300Z,4.43
2022-10-29T07:16:47.137Z,5.00
2022-10-29T07:17:22.419Z,4.97
2022-10-29T07:17:58.732Z,4.55
2022-10-29T07:18:35.180Z,4.80
2022-10-29T07:19:10.386Z,5.07
2022-10-29T07:19:50.962Z,5.53
2022-10-29T07:20:26.773Z,5.15
2022-10-29T07:21:00.773Z,5.18
2022-10-29T07:21:36.513Z,5.30
2022-10-29T07:22:11.218Z,5.10
2022-10-29T07:22:49.532Z,4.63
2022-10-29T07:23:26.167Z,4.90
2022-10-29T07:24:00.744Z,5.50
2022-10-29T07:24:37.083Z,5.07
2022-10-29T07:25:11.757Z,4.75
2022-10-29T07:25:46.010Z,242.57
2022-10-29T07:26:20.631Z,103.55
2022-10-29T07:26:56.985Z,28.98
2022-10-29T07:27:31.707Z,32.65
2022-10-29T07:28:05.950Z,10.55
2022-10-29T07:28:41.781Z,8.85
2022-10-29T07:29:16.169Z,6.90
2022-10-29T07:29:51.330Z,5.97
2022-10-29T07:30:28.059Z,5.32
2022-10-29T07:31:02.602Z,6.07
2022-10-29T07:31:37.272Z,5.32
2022-10-29T07:32:12.757Z,5.60
2022-10-29T07:32:48.581Z,5.88
2022-10-29T07:33:24.378Z,5.63
2022-10-29T07:33:59.580Z,5.45
2022-10-29T07:34:35.380Z,5.20
2022-10-29T07:35:10.759Z,4.95
2022-10-29T07:35:46.979Z,5.28
2022-10-29T07:36:21.537Z,5.25
2022-10-29T07:36:56.147Z,5.55
2022-10-29T07:37:31.662Z,5.70
2022-10-29T07:38:10.799Z,5.82
2022-10-29T07:38:48.267Z,7.15
2022-10-29T07:39:23.377Z,7.82
2022-10-29T07:39:58.823Z,7.40
2022-10-29T07:40:35.524Z,8.00
2022-10-29T07:41:10.113Z,7.43
2022-10-29T07:41:46.049Z,7.63
2022-10-29T07:42:21.192Z,7.70
2022-10-29T07:42:56.539Z,8.50
2022-10-29T07:43:33.240Z,8.50
2022-10-29T07:44:07.944Z,9.32
2022-10-29T07:44:42.586Z,8.20
2022-10-29T07:45:17.859Z,9.30
2022-10-29T07:45:53.134Z,8.15
2022-10-29T07:46:28.301Z,7.50
2022-10-29T07:47:04.624Z,7.68
2022-10-29T07:47:38.748Z,7.93
2022-10-29T07:48:15.941Z,7.88
2022-10-29T07:48:50.991Z,7.28
2022-10-29T07:49:26.230Z,6.70
2022-10-29T07:50:02.452Z,6.38
2022-10-29T07:50:37.454Z,6.22
2022-10-29T07:51:12.080Z,5.97
2022-10-29T07:51:48.843Z,5.78
2022-10-29T07:52:23.417Z,6.60
2022-10-29T07:52:58.598Z,6.22
2022-10-29T07:53:35.089Z,6.35
2022-10-29T07:54:14.574Z,6.30
2022-10-29T07:54:50.139Z,6.90
2022-10-29T07:56:02.736Z,7.30
2022-10-29T07:56:37.472Z,10.27
2022-10-29T07:57:13.904Z,7.70
2022-10-29T07:57:48.534Z,6.88
2022-10-29T07:58:23.723Z,7.15
2022-10-29T07:59:03.854Z,6.90
2022-10-29T07:59:38.850Z,6.50
2022-10-29T08:00:15.516Z,6.40
2022-10-29T08:00:56.233Z,6.40
2022-10-29T08:01:31.602Z,6.18
2022-10-29T08:02:07.075Z,5.82
2022-10-29T08:02:55.864Z,6.00
2022-10-29T08:03:36.740Z,6.25
2022-10-29T08:04:14.141Z,6.55
2022-10-29T08:04:49.034Z,6.63
2022-10-29T08:05:24.946Z,5.75
2022-10-29T08:05:59.277Z,6.13
2022-10-29T08:06:34.781Z,5.93
2022-10-29T08:07:11.260Z,8.43
2022-10-29T08:07:46.273Z,7.05
2022-10-29T08:08:22.185Z,7.13
2022-10-29T08:08:56.899Z,7.18
2022-10-29T08:09:31.297Z,6.88
2022-10-29T08:10:09.608Z,7.03
2022-10-29T08:10:45.900Z,6.55
2022-10-29T08:11:22.036Z,6.13
2022-10-29T08:11:56.995Z,6.35
2022-10-29T08:12:31.492Z,6.45
2022-10-29T08:13:08.859Z,6.60
2022-10-29T08:13:44.399Z,6.50
2022-10-29T08:14:20.328Z,6.03
2022-10-29T08:14:59.267Z,5.88
2022-10-29T08:15:35.510Z,5.88
2022-10-29T08:16:11.682Z,5.88
2022-10-29T08:16:46.035Z,6.32
2022-10-29T08:17:21.535Z,6.53
2022-10-29T08:17:57.612Z,6.30
2022-10-29T08:18:32.163Z,6.07
2022-10-29T08:19:07.343Z,6.10
2022-10-29T08:19:43.104Z,6.10
2022-10-29T08:20:17.869Z,6.63
2022-10-29T08:20:54.464Z,6.90
2022-10-29T08:21:29.556Z,6.95